RYR8XK LIPE-LIBC
Flight info
| Callsign | RYR8XK |
|---|---|
| Flight time | N/A |
| Altitude | 19000 |
| Route | PELEG M726 GAVRA/N0449F350 DCT NIKMA DCT IPGOR DCT ALAXI DCT TEA DCT POLIT DCT EVINO/N0373F190 M620 CDC |
| Aircraft | B738/M-SDE3FGILRWY/SB1 |
Departure
| Time | N/A |
|---|---|
| Airport | Bologna Guglielmo Marconi Airport (LIPE) |
Arrival
| Time | 2026-04-26 17:34 |
|---|---|
| Airport | Crotone Sant'Anna Pythagoras Airport (LIBC) |
| Time | Latitude | Longitude | Altitude | Speed | Heading |
|---|---|---|---|---|---|
| 2026-04-26 16:42 | 42.32856 | 13.13835 | 32648 ft | 467 kts | 149° |
| 2026-04-26 16:42 | 42.29919 | 13.15645 | 32912 ft | 465 kts | 165° |
| 2026-04-26 16:42 | 42.26799 | 13.16778 | 33277 ft | 463 kts | 167° |
| 2026-04-26 16:42 | 42.23669 | 13.17799 | 33627 ft | 462 kts | 168° |
| 2026-04-26 16:43 | 42.20545 | 13.18794 | 33960 ft | 461 kts | 168° |
| 2026-04-26 16:43 | 42.17469 | 13.19789 | 34299 ft | 460 kts | 168° |
| 2026-04-26 16:43 | 42.14353 | 13.20823 | 34643 ft | 459 kts | 167° |
| 2026-04-26 16:43 | 42.11257 | 13.21871 | 34964 ft | 458 kts | 167° |
| 2026-04-26 16:44 | 42.08166 | 13.22930 | 35137 ft | 461 kts | 167° |
| 2026-04-26 16:44 | 42.05041 | 13.24005 | 35125 ft | 464 kts | 167° |
| 2026-04-26 16:44 | 41.98798 | 13.26155 | 35121 ft | 461 kts | 167° |
| 2026-04-26 16:45 | 41.92620 | 13.28211 | 35128 ft | 456 kts | 168° |
| 2026-04-26 16:45 | 41.86476 | 13.30279 | 35122 ft | 455 kts | 167° |
| 2026-04-26 16:46 | 41.80341 | 13.32417 | 35127 ft | 455 kts | 167° |
| 2026-04-26 16:46 | 41.74404 | 13.35171 | 35129 ft | 458 kts | 152° |
| 2026-04-26 16:47 | 41.69390 | 13.40411 | 35134 ft | 461 kts | 134° |
| 2026-04-26 16:47 | 41.65054 | 13.46744 | 35130 ft | 463 kts | 133° |
| 2026-04-26 16:48 | 41.60702 | 13.53096 | 35135 ft | 464 kts | 133° |
| 2026-04-26 16:48 | 41.56304 | 13.59410 | 35137 ft | 464 kts | 134° |
| 2026-04-26 16:49 | 41.51882 | 13.65708 | 35135 ft | 466 kts | 134° |
| 2026-04-26 16:49 | 41.47443 | 13.72010 | 35139 ft | 466 kts | 134° |
| 2026-04-26 16:50 | 41.43004 | 13.78305 | 35140 ft | 466 kts | 134° |
| 2026-04-26 16:50 | 41.38561 | 13.84595 | 35151 ft | 466 kts | 134° |
| 2026-04-26 16:51 | 41.34113 | 13.90880 | 35149 ft | 466 kts | 134° |
| 2026-04-26 16:51 | 41.29549 | 13.96989 | 35146 ft | 465 kts | 142° |
| 2026-04-26 16:52 | 41.25023 | 14.00868 | 35167 ft | 461 kts | 152° |
| 2026-04-26 16:52 | 41.18523 | 14.05697 | 35156 ft | 460 kts | 152° |
| 2026-04-26 16:53 | 41.12954 | 14.09868 | 35155 ft | 459 kts | 152° |
| 2026-04-26 16:53 | 41.07408 | 14.14065 | 35156 ft | 459 kts | 152° |
| 2026-04-26 16:54 | 41.01876 | 14.18264 | 35159 ft | 458 kts | 152° |
| 2026-04-26 16:54 | 40.96343 | 14.22453 | 35150 ft | 458 kts | 152° |
| 2026-04-26 16:55 | 40.90807 | 14.26629 | 35138 ft | 458 kts | 152° |
| 2026-04-26 16:55 | 40.85265 | 14.30807 | 35135 ft | 458 kts | 152° |
| 2026-04-26 16:56 | 40.76959 | 14.37053 | 35127 ft | 458 kts | 152° |
| 2026-04-26 16:57 | 40.71418 | 14.41209 | 35132 ft | 458 kts | 152° |
| 2026-04-26 16:57 | 40.63109 | 14.47426 | 35135 ft | 458 kts | 152° |
| 2026-04-26 16:58 | 40.58503 | 14.50867 | 35137 ft | 458 kts | 152° |
| 2026-04-26 16:59 | 40.49252 | 14.57756 | 35128 ft | 458 kts | 152° |
| 2026-04-26 17:00 | 40.38162 | 14.65985 | 35132 ft | 458 kts | 152° |
| 2026-04-26 17:00 | 40.29849 | 14.72135 | 35130 ft | 457 kts | 152° |
| 2026-04-26 17:01 | 40.24344 | 14.76198 | 35136 ft | 457 kts | 152° |
| 2026-04-26 17:01 | 40.18806 | 14.80279 | 35139 ft | 457 kts | 152° |
| 2026-04-26 17:02 | 40.13384 | 14.84617 | 35128 ft | 459 kts | 142° |
| 2026-04-26 17:02 | 40.08569 | 14.90074 | 35136 ft | 459 kts | 140° |
| 2026-04-26 17:03 | 40.03790 | 14.95595 | 35141 ft | 459 kts | 140° |
| 2026-04-26 17:03 | 39.98980 | 15.01070 | 35156 ft | 459 kts | 140° |
| 2026-04-26 17:04 | 39.94152 | 15.06508 | 35157 ft | 459 kts | 141° |
| 2026-04-26 17:04 | 39.89308 | 15.11946 | 35163 ft | 460 kts | 141° |
| 2026-04-26 17:05 | 39.84461 | 15.17386 | 35167 ft | 460 kts | 141° |
| 2026-04-26 17:05 | 39.79606 | 15.22820 | 35168 ft | 461 kts | 141° |
| 2026-04-26 17:06 | 39.74742 | 15.28257 | 35164 ft | 461 kts | 141° |
| 2026-04-26 17:06 | 39.72302 | 15.30980 | 34894 ft | 466 kts | 141° |
| 2026-04-26 17:06 | 39.69839 | 15.33728 | 34319 ft | 466 kts | 141° |
| 2026-04-26 17:07 | 39.67381 | 15.36474 | 33687 ft | 466 kts | 141° |
| 2026-04-26 17:07 | 39.64937 | 15.39207 | 33219 ft | 462 kts | 141° |
| 2026-04-26 17:07 | 39.62513 | 15.41915 | 32750 ft | 458 kts | 141° |
| 2026-04-26 17:07 | 39.60111 | 15.44597 | 32283 ft | 454 kts | 141° |
| 2026-04-26 17:08 | 39.57730 | 15.47252 | 31826 ft | 450 kts | 141° |
| 2026-04-26 17:08 | 39.55363 | 15.49888 | 31368 ft | 446 kts | 141° |
| 2026-04-26 17:08 | 39.53022 | 15.52493 | 30916 ft | 442 kts | 141° |
| 2026-04-26 17:08 | 39.50694 | 15.55079 | 30463 ft | 439 kts | 141° |
| 2026-04-26 17:09 | 39.48387 | 15.57642 | 30024 ft | 435 kts | 141° |
| 2026-04-26 17:09 | 39.46871 | 15.59324 | 29720 ft | 433 kts | 141° |
| 2026-04-26 17:09 | 39.43829 | 15.62698 | 29104 ft | 428 kts | 141° |
| 2026-04-26 17:09 | 39.41575 | 15.65196 | 28649 ft | 425 kts | 141° |
| 2026-04-26 17:10 | 39.39340 | 15.67670 | 28194 ft | 421 kts | 141° |
| 2026-04-26 17:10 | 39.37122 | 15.70122 | 27735 ft | 418 kts | 141° |
| 2026-04-26 17:10 | 39.34921 | 15.72555 | 27286 ft | 415 kts | 141° |
| 2026-04-26 17:10 | 39.32731 | 15.74973 | 26837 ft | 412 kts | 141° |
| 2026-04-26 17:11 | 39.30560 | 15.77368 | 26390 ft | 409 kts | 141° |
| 2026-04-26 17:11 | 39.28399 | 15.79748 | 25949 ft | 407 kts | 141° |
| 2026-04-26 17:11 | 39.26253 | 15.82101 | 25498 ft | 404 kts | 141° |
| 2026-04-26 17:11 | 39.24108 | 15.84432 | 25037 ft | 402 kts | 141° |
| 2026-04-26 17:12 | 39.19851 | 15.89043 | 24146 ft | 397 kts | 141° |
| 2026-04-26 17:12 | 39.17743 | 15.91328 | 23714 ft | 394 kts | 141° |
| 2026-04-26 17:13 | 39.13569 | 15.95847 | 22840 ft | 389 kts | 141° |
| 2026-04-26 17:13 | 39.11505 | 15.98083 | 22410 ft | 387 kts | 141° |
| 2026-04-26 17:13 | 39.07418 | 16.02527 | 21538 ft | 382 kts | 141° |
| 2026-04-26 17:14 | 39.05393 | 16.04729 | 21109 ft | 380 kts | 141° |
| 2026-04-26 17:14 | 39.01375 | 16.09089 | 20262 ft | 376 kts | 141° |
| 2026-04-26 17:14 | 38.99384 | 16.11247 | 19842 ft | 373 kts | 141° |
| 2026-04-26 17:15 | 38.95434 | 16.15519 | 19008 ft | 369 kts | 141° |
| 2026-04-26 17:15 | 38.93477 | 16.17637 | 18594 ft | 367 kts | 141° |
| 2026-04-26 17:15 | 38.91557 | 16.19711 | 18187 ft | 364 kts | 141° |
| 2026-04-26 17:16 | 38.89625 | 16.21798 | 17775 ft | 362 kts | 141° |
| 2026-04-26 17:16 | 38.87702 | 16.23873 | 17369 ft | 360 kts | 141° |
| 2026-04-26 17:16 | 38.85790 | 16.25935 | 16967 ft | 357 kts | 141° |
| 2026-04-26 17:16 | 38.83894 | 16.27979 | 16570 ft | 355 kts | 141° |
| 2026-04-26 17:17 | 38.82007 | 16.30011 | 16177 ft | 353 kts | 141° |
| 2026-04-26 17:17 | 38.80129 | 16.32030 | 15782 ft | 351 kts | 141° |
| 2026-04-26 17:17 | 38.78343 | 16.34143 | 15371 ft | 350 kts | 129° |
| 2026-04-26 17:17 | 38.77234 | 16.36891 | 14987 ft | 348 kts | 105° |
| 2026-04-26 17:18 | 38.77001 | 16.39946 | 14602 ft | 345 kts | 85° |
| 2026-04-26 17:18 | 38.77552 | 16.42904 | 14206 ft | 342 kts | 68° |
| 2026-04-26 17:18 | 38.78481 | 16.45695 | 13806 ft | 339 kts | 65° |
| 2026-04-26 17:18 | 38.79450 | 16.48441 | 13411 ft | 338 kts | 64° |
| 2026-04-26 17:19 | 38.81361 | 16.53904 | 12629 ft | 334 kts | 65° |
| 2026-04-26 17:19 | 38.82290 | 16.56623 | 12245 ft | 332 kts | 65° |
| 2026-04-26 17:19 | 38.83205 | 16.59323 | 11862 ft | 330 kts | 65° |
| 2026-04-26 17:20 | 38.84115 | 16.62018 | 11481 ft | 328 kts | 65° |
| 2026-04-26 17:20 | 38.84424 | 16.62923 | 11344 ft | 327 kts | 64° |
| 2026-04-26 17:20 | 38.86197 | 16.67174 | 10738 ft | 323 kts | 58° |
| 2026-04-26 17:20 | 38.87325 | 16.69612 | 10602 ft | 313 kts | 58° |
| 2026-04-26 17:21 | 38.88419 | 16.71977 | 10453 ft | 304 kts | 58° |
| 2026-04-26 17:21 | 38.89473 | 16.74282 | 10303 ft | 294 kts | 58° |
| 2026-04-26 17:21 | 38.90487 | 16.76517 | 10194 ft | 286 kts | 58° |
| 2026-04-26 17:21 | 38.91469 | 16.78694 | 10079 ft | 278 kts | 58° |
| 2026-04-26 17:22 | 38.92409 | 16.80788 | 9961 ft | 270 kts | 58° |
| 2026-04-26 17:22 | 38.93334 | 16.82852 | 9847 ft | 263 kts | 58° |
| 2026-04-26 17:22 | 38.93944 | 16.84212 | 9768 ft | 258 kts | 58° |
| 2026-04-26 17:22 | 38.95102 | 16.86812 | 9616 ft | 249 kts | 57° |
| 2026-04-26 17:23 | 38.95951 | 16.88713 | 9515 ft | 242 kts | 58° |
| 2026-04-26 17:23 | 38.96784 | 16.90580 | 9284 ft | 241 kts | 58° |
| 2026-04-26 17:23 | 38.97375 | 16.92588 | 9046 ft | 243 kts | 77° |
| 2026-04-26 17:23 | 38.97647 | 16.94718 | 8819 ft | 241 kts | 77° |
| 2026-04-26 17:24 | 38.97842 | 16.96151 | 8659 ft | 240 kts | 77° |
| 2026-04-26 17:24 | 38.98139 | 16.98259 | 8418 ft | 240 kts | 76° |
| 2026-04-26 17:24 | 38.98443 | 17.00355 | 8170 ft | 239 kts | 76° |
| 2026-04-26 17:24 | 38.98750 | 17.02452 | 7928 ft | 238 kts | 76° |
| 2026-04-26 17:25 | 38.99056 | 17.04537 | 7685 ft | 237 kts | 76° |
| 2026-04-26 17:25 | 38.99363 | 17.06622 | 7446 ft | 237 kts | 76° |
| 2026-04-26 17:25 | 38.99871 | 17.08599 | 7159 ft | 231 kts | 50° |
| 2026-04-26 17:25 | 39.00951 | 17.10069 | 6977 ft | 225 kts | 41° |
| 2026-04-26 17:26 | 39.02053 | 17.11500 | 6718 ft | 225 kts | 42° |
| 2026-04-26 17:26 | 39.03137 | 17.12914 | 6492 ft | 225 kts | 42° |
| 2026-04-26 17:26 | 39.04235 | 17.14352 | 6216 ft | 226 kts | 42° |
| 2026-04-26 17:26 | 39.05346 | 17.15806 | 5932 ft | 228 kts | 42° |
| 2026-04-26 17:27 | 39.06454 | 17.17257 | 5683 ft | 228 kts | 42° |
| 2026-04-26 17:27 | 39.07612 | 17.18644 | 5417 ft | 225 kts | 29° |
| 2026-04-26 17:27 | 39.09073 | 17.19152 | 5185 ft | 217 kts | 354° |
| 2026-04-26 17:27 | 39.10516 | 17.18674 | 4957 ft | 214 kts | 334° |
| 2026-04-26 17:28 | 39.11807 | 17.17721 | 4724 ft | 213 kts | 329° |
| 2026-04-26 17:28 | 39.13068 | 17.16748 | 4489 ft | 207 kts | 329° |
| 2026-04-26 17:28 | 39.14172 | 17.15651 | 4230 ft | 198 kts | 306° |
| 2026-04-26 17:28 | 39.14654 | 17.14047 | 4045 ft | 192 kts | 281° |
| 2026-04-26 17:29 | 39.14582 | 17.12350 | 3842 ft | 188 kts | 261° |
| 2026-04-26 17:29 | 39.14410 | 17.11257 | 3717 ft | 181 kts | 262° |
| 2026-04-26 17:29 | 39.14099 | 17.09209 | 3460 ft | 173 kts | 262° |
| 2026-04-26 17:29 | 39.13861 | 17.07649 | 3059 ft | 180 kts | 262° |
| 2026-04-26 17:30 | 39.13602 | 17.06139 | 3009 ft | 171 kts | 251° |
| 2026-04-26 17:30 | 39.12767 | 17.05094 | 2968 ft | 178 kts | 197° |
| 2026-04-26 17:30 | 39.11502 | 17.05115 | 2795 ft | 188 kts | 171° |
| 2026-04-26 17:30 | 39.10227 | 17.05396 | 2513 ft | 182 kts | 172° |
| 2026-04-26 17:31 | 39.09016 | 17.05678 | 2298 ft | 170 kts | 172° |
| 2026-04-26 17:31 | 39.07905 | 17.05954 | 2045 ft | 156 kts | 173° |
| 2026-04-26 17:31 | 39.06872 | 17.06219 | 1866 ft | 148 kts | 172° |
| 2026-04-26 17:31 | 39.05866 | 17.06473 | 1675 ft | 146 kts | 173° |
| 2026-04-26 17:32 | 39.04881 | 17.06727 | 1469 ft | 143 kts | 173° |
| 2026-04-26 17:32 | 39.03914 | 17.06960 | 1296 ft | 140 kts | 173° |
| 2026-04-26 17:32 | 39.02956 | 17.07197 | 1082 ft | 141 kts | 172° |
| 2026-04-26 17:32 | 39.01996 | 17.07446 | 852 ft | 140 kts | 172° |
| 2026-04-26 17:33 | 39.01037 | 17.07694 | 658 ft | 141 kts | 172° |
| 2026-04-26 17:33 | 39.00081 | 17.07934 | 527 ft | 134 kts | 168° |
| 2026-04-26 17:33 | 38.99372 | 17.08113 | 525 ft | 66 kts | 169° |
| 2026-04-26 17:34 | 38.99256 | 17.08142 | 528 ft | 1 kts | 169° |
| 2026-04-26 17:34 | 38.99233 | 17.08148 | 528 ft | 6 kts | 169° |
| 2026-04-26 17:34 | 38.99169 | 17.08164 | 528 ft | 13 kts | 169° |
| 2026-04-26 17:34 | 38.99055 | 17.08192 | 528 ft | 20 kts | 169° |
| 2026-04-26 17:35 | 38.98929 | 17.08210 | 526 ft | 14 kts | 190° |
| 2026-04-26 17:35 | 38.98852 | 17.08234 | 523 ft | 9 kts | 89° |
| 2026-04-26 17:35 | 38.98891 | 17.08239 | 525 ft | 8 kts | 330° |
| 2026-04-26 17:35 | 38.98975 | 17.08213 | 527 ft | 17 kts | 349° |
| 2026-04-26 17:36 | 38.99112 | 17.08178 | 528 ft | 21 kts | 349° |
| 2026-04-26 17:36 | 38.99253 | 17.08137 | 528 ft | 20 kts | 334° |
| 2026-04-26 17:36 | 38.99337 | 17.08022 | 525 ft | 15 kts | 310° |
| 2026-04-26 17:36 | 38.99402 | 17.07925 | 526 ft | 14 kts | 310° |
| 2026-04-26 17:37 | 38.99467 | 17.07863 | 526 ft | 11 kts | 345° |
| 2026-04-26 17:37 | 38.99516 | 17.07829 | 526 ft | 6 kts | 277° |
| 2026-04-26 17:37 | 38.99513 | 17.07798 | 527 ft | 2 kts | 270° |
| 2026-04-26 17:38 | 38.99522 | 17.07784 | 527 ft | 0 kts | 310° |